sensor_id;sensor_type;location;lat;lon;timestamp;temperature;humidity
9329;DHT22;4703;48.748;19.142;2023-05-23T00:01:41;16.10;99.90
9329;DHT22;4703;48.748;19.142;2023-05-23T00:04:09;15.10;99.90
9329;DHT22;4703;48.748;19.142;2023-05-23T00:06:42;15.80;99.90
9329;DHT22;4703;48.748;19.142;2023-05-23T00:09:16;14.90;99.90
9329;DHT22;4703;48.748;19.142;2023-05-23T00:11:43;14.80;99.90
9329;DHT22;4703;48.748;19.142;2023-05-23T00:14:12;15.30;99.90
9329;DHT22;4703;48.748;19.142;2023-05-23T00:16:41;16.00;99.90
9329;DHT22;4703;48.748;19.142;2023-05-23T00:19:10;15.40;99.90
9329;DHT22;4703;48.748;19.142;2023-05-23T00:21:41;15.20;99.90
9329;DHT22;4703;48.748;19.142;2023-05-23T00:24:13;15.40;99.90
9329;DHT22;4703;48.748;19.142;2023-05-23T00:26:45;15.90;99.90
9329;DHT22;4703;48.748;19.142;2023-05-23T00:29:13;14.60;99.90
9329;DHT22;4703;48.748;19.142;2023-05-23T00:31:44;14.60;99.90
9329;DHT22;4703;48.748;19.142;2023-05-23T00:34:15;17.10;99.90
9329;DHT22;4703;48.748;19.142;2023-05-23T00:36:45;15.40;99.90
9329;DHT22;4703;48.748;19.142;2023-05-23T00:39:13;14.50;99.90
9329;DHT22;4703;48.748;19.142;2023-05-23T00:41:49;15.10;99.90
9329;DHT22;4703;48.748;19.142;2023-05-23T00:44:19;14.40;99.90
9329;DHT22;4703;48.748;19.142;2023-05-23T00:46:51;14.40;99.90
9329;DHT22;4703;48.748;19.142;2023-05-23T00:49:20;14.40;99.90
9329;DHT22;4703;48.748;19.142;2023-05-23T00:51:48;15.80;99.90
9329;DHT22;4703;48.748;19.142;2023-05-23T00:54:24;16.20;99.90
9329;DHT22;4703;48.748;19.142;2023-05-23T00:56:54;15.30;99.90
9329;DHT22;4703;48.748;19.142;2023-05-23T00:59:25;15.60;99.90
9329;DHT22;4703;48.748;19.142;2023-05-23T01:01:55;15.10;99.90
9329;DHT22;4703;48.748;19.142;2023-05-23T01:04:23;15.30;99.90
9329;DHT22;4703;48.748;19.142;2023-05-23T01:06:55;14.40;99.90
9329;DHT22;4703;48.748;19.142;2023-05-23T01:09:23;15.10;99.90
9329;DHT22;4703;48.748;19.142;2023-05-23T01:11:57;16.20;99.90
9329;DHT22;4703;48.748;19.142;2023-05-23T01:20:37;14.30;99.90
9329;DHT22;4703;48.748;19.142;2023-05-23T01:29:12;14.20;99.90
9329;DHT22;4703;48.748;19.142;2023-05-23T01:31:45;14.40;99.90
9329;DHT22;4703;48.748;19.142;2023-05-23T01:34:16;14.20;99.90
9329;DHT22;4703;48.748;19.142;2023-05-23T01:36:44;14.90;99.90
9329;DHT22;4703;48.748;19.142;2023-05-23T01:39:16;14.80;99.90
9329;DHT22;4703;48.748;19.142;2023-05-23T01:41:43;14.10;99.90
9329;DHT22;4703;48.748;19.142;2023-05-23T01:44:10;15.00;99.90
9329;DHT22;4703;48.748;19.142;2023-05-23T01:46:38;14.20;99.90
9329;DHT22;4703;48.748;19.142;2023-05-23T01:49:09;14.70;99.90
9329;DHT22;4703;48.748;19.142;2023-05-23T01:51:38;14.10;99.90
9329;DHT22;4703;48.748;19.142;2023-05-23T01:54:05;14.70;99.90
9329;DHT22;4703;48.748;19.142;2023-05-23T01:56:33;14.10;99.90
9329;DHT22;4703;48.748;19.142;2023-05-23T01:59:01;14.90;99.90
9329;DHT22;4703;48.748;19.142;2023-05-23T02:01:29;14.00;99.90
9329;DHT22;4703;48.748;19.142;2023-05-23T02:03:56;14.60;99.90
9329;DHT22;4703;48.748;19.142;2023-05-23T02:06:24;14.10;99.90
9329;DHT22;4703;48.748;19.142;2023-05-23T02:08:51;15.20;99.90
9329;DHT22;4703;48.748;19.142;2023-05-23T02:11:17;14.90;99.90
9329;DHT22;4703;48.748;19.142;2023-05-23T02:13:45;13.90;99.90
9329;DHT22;4703;48.748;19.142;2023-05-23T02:16:13;16.30;99.90
9329;DHT22;4703;48.748;19.142;2023-05-23T02:18:40;15.00;99.90
9329;DHT22;4703;48.748;19.142;2023-05-23T02:21:07;15.20;99.90
9329;DHT22;4703;48.748;19.142;2023-05-23T02:23:34;13.80;99.90
9329;DHT22;4703;48.748;19.142;2023-05-23T02:26:01;14.10;99.90
9329;DHT22;4703;48.748;19.142;2023-05-23T02:28:28;14.10;99.90
9329;DHT22;4703;48.748;19.142;2023-05-23T02:30:55;13.70;99.90
9329;DHT22;4703;48.748;19.142;2023-05-23T02:33:23;15.20;99.90
9329;DHT22;4703;48.748;19.142;2023-05-23T02:35:50;14.50;99.90
9329;DHT22;4703;48.748;19.142;2023-05-23T02:38:19;15.60;99.90
9329;DHT22;4703;48.748;19.142;2023-05-23T02:40:46;14.30;99.90
9329;DHT22;4703;48.748;19.142;2023-05-23T02:43:16;13.70;99.90
9329;DHT22;4703;48.748;19.142;2023-05-23T02:45:43;13.60;99.90
9329;DHT22;4703;48.748;19.142;2023-05-23T02:48:10;14.80;99.90
9329;DHT22;4703;48.748;19.142;2023-05-23T02:50:37;13.70;99.90
9329;DHT22;4703;48.748;19.142;2023-05-23T02:53:04;14.60;99.90
9329;DHT22;4703;48.748;19.142;2023-05-23T02:55:31;14.00;99.90
9329;DHT22;4703;48.748;19.142;2023-05-23T02:57:58;13.50;99.90
9329;DHT22;4703;48.748;19.142;2023-05-23T03:00:26;14.30;99.90
9329;DHT22;4703;48.748;19.142;2023-05-23T03:02:53;14.30;99.90
9329;DHT22;4703;48.748;19.142;2023-05-23T03:05:20;13.60;99.90
9329;DHT22;4703;48.748;19.142;2023-05-23T03:07:47;12.00;99.90
9329;DHT22;4703;48.748;19.142;2023-05-23T03:10:14;13.50;99.90
9329;DHT22;4703;48.748;19.142;2023-05-23T03:12:41;13.50;99.90
9329;DHT22;4703;48.748;19.142;2023-05-23T03:15:09;13.90;99.90
9329;DHT22;4703;48.748;19.142;2023-05-23T03:17:37;13.40;99.90
9329;DHT22;4703;48.748;19.142;2023-05-23T03:20:04;14.10;99.90
9329;DHT22;4703;48.748;19.142;2023-05-23T03:22:35;13.40;99.90
9329;DHT22;4703;48.748;19.142;2023-05-23T03:25:02;13.40;99.90
9329;DHT22;4703;48.748;19.142;2023-05-23T03:27:30;13.40;99.90
9329;DHT22;4703;48.748;19.142;2023-05-23T03:29:57;15.00;99.90
9329;DHT22;4703;48.748;19.142;2023-05-23T03:32:24;14.00;99.90
9329;DHT22;4703;48.748;19.142;2023-05-23T03:34:51;14.20;99.90
9329;DHT22;4703;48.748;19.142;2023-05-23T03:37:19;14.90;99.90
9329;DHT22;4703;48.748;19.142;2023-05-23T03:39:46;14.00;99.90
9329;DHT22;4703;48.748;19.142;2023-05-23T03:42:13;13.80;99.90
9329;DHT22;4703;48.748;19.142;2023-05-23T03:44:40;13.40;99.90
9329;DHT22;4703;48.748;19.142;2023-05-23T03:47:07;13.70;99.90
9329;DHT22;4703;48.748;19.142;2023-05-23T03:49:34;13.40;99.90
9329;DHT22;4703;48.748;19.142;2023-05-23T03:52:04;14.90;99.90
9329;DHT22;4703;48.748;19.142;2023-05-23T03:54:31;13.50;99.90
9329;DHT22;4703;48.748;19.142;2023-05-23T03:56:58;14.50;99.90
9329;DHT22;4703;48.748;19.142;2023-05-23T03:59:25;13.60;99.90
9329;DHT22;4703;48.748;19.142;2023-05-23T04:01:52;14.00;99.90
9329;DHT22;4703;48.748;19.142;2023-05-23T04:04:19;13.50;99.90
9329;DHT22;4703;48.748;19.142;2023-05-23T04:06:46;14.40;99.90
9329;DHT22;4703;48.748;19.142;2023-05-23T04:09:13;13.90;99.90
9329;DHT22;4703;48.748;19.142;2023-05-23T04:11:40;13.60;99.90
9329;DHT22;4703;48.748;19.142;2023-05-23T04:14:08;14.30;99.90
9329;DHT22;4703;48.748;19.142;2023-05-23T04:16:36;14.70;99.90
9329;DHT22;4703;48.748;19.142;2023-05-23T04:19:04;13.80;99.90
9329;DHT22;4703;48.748;19.142;2023-05-23T04:21:31;13.80;99.90
9329;DHT22;4703;48.748;19.142;2023-05-23T04:24:00;14.10;99.90
9329;DHT22;4703;48.748;19.142;2023-05-23T04:26:28;13.70;99.90
9329;DHT22;4703;48.748;19.142;2023-05-23T04:28:55;15.00;99.90
9329;DHT22;4703;48.748;19.142;2023-05-23T04:31:22;15.00;99.90
9329;DHT22;4703;48.748;19.142;2023-05-23T04:33:49;15.70;99.90
9329;DHT22;4703;48.748;19.142;2023-05-23T04:36:17;13.90;99.90
9329;DHT22;4703;48.748;19.142;2023-05-23T04:38:44;14.50;99.90
9329;DHT22;4703;48.748;19.142;2023-05-23T04:41:11;13.90;99.90
9329;DHT22;4703;48.748;19.142;2023-05-23T04:43:38;14.60;99.90
9329;DHT22;4703;48.748;19.142;2023-05-23T04:46:08;14.60;99.90
9329;DHT22;4703;48.748;19.142;2023-05-23T04:48:36;13.90;99.90
9329;DHT22;4703;48.748;19.142;2023-05-23T04:51:04;14.30;99.90
9329;DHT22;4703;48.748;19.142;2023-05-23T04:53:34;14.00;99.90
9329;DHT22;4703;48.748;19.142;2023-05-23T04:56:02;15.50;99.90
9329;DHT22;4703;48.748;19.142;2023-05-23T04:58:29;14.10;99.90
9329;DHT22;4703;48.748;19.142;2023-05-23T05:00:57;16.00;99.90
9329;DHT22;4703;48.748;19.142;2023-05-23T05:03:24;14.70;99.90
9329;DHT22;4703;48.748;19.142;2023-05-23T05:05:52;14.70;99.90
9329;DHT22;4703;48.748;19.142;2023-05-23T05:08:19;14.50;99.90
9329;DHT22;4703;48.748;19.142;2023-05-23T05:10:46;14.40;99.90
9329;DHT22;4703;48.748;19.142;2023-05-23T05:13:13;14.30;99.90
9329;DHT22;4703;48.748;19.142;2023-05-23T05:15:40;14.80;99.90
9329;DHT22;4703;48.748;19.142;2023-05-23T05:18:08;14.40;99.90
9329;DHT22;4703;48.748;19.142;2023-05-23T05:20:35;14.40;99.90
9329;DHT22;4703;48.748;19.142;2023-05-23T05:23:02;14.50;99.90
9329;DHT22;4703;48.748;19.142;2023-05-23T05:25:29;15.80;99.90
9329;DHT22;4703;48.748;19.142;2023-05-23T05:28:00;15.60;99.90
9329;DHT22;4703;48.748;19.142;2023-05-23T05:30:33;15.30;99.90
9329;DHT22;4703;48.748;19.142;2023-05-23T05:33:04;17.40;99.90
9329;DHT22;4703;48.748;19.142;2023-05-23T05:35:36;14.60;99.90
9329;DHT22;4703;48.748;19.142;2023-05-23T05:38:06;15.70;99.90
9329;DHT22;4703;48.748;19.142;2023-05-23T05:40:34;14.70;99.90
9329;DHT22;4703;48.748;19.142;2023-05-23T05:43:01;16.00;99.90
9329;DHT22;4703;48.748;19.142;2023-05-23T05:45:28;15.90;99.90
9329;DHT22;4703;48.748;19.142;2023-05-23T05:47:55;15.50;99.90
9329;DHT22;4703;48.748;19.142;2023-05-23T05:50:22;15.70;99.90
9329;DHT22;4703;48.748;19.142;2023-05-23T05:52:49;14.90;99.90
9329;DHT22;4703;48.748;19.142;2023-05-23T05:55:16;15.80;99.90
9329;DHT22;4703;48.748;19.142;2023-05-23T05:57:43;15.70;99.90
9329;DHT22;4703;48.748;19.142;2023-05-23T06:00:12;17.00;99.90
9329;DHT22;4703;48.748;19.142;2023-05-23T06:02:45;15.10;99.90
9329;DHT22;4703;48.748;19.142;2023-05-23T06:05:20;16.20;99.90
9329;DHT22;4703;48.748;19.142;2023-05-23T06:07:48;15.20;99.90
9329;DHT22;4703;48.748;19.142;2023-05-23T06:10:16;16.40;99.90
9329;DHT22;4703;48.748;19.142;2023-05-23T06:12:43;15.30;99.90
9329;DHT22;4703;48.748;19.142;2023-05-23T06:15:11;15.40;99.90
9329;DHT22;4703;48.748;19.142;2023-05-23T06:17:41;15.40;99.90
9329;DHT22;4703;48.748;19.142;2023-05-23T06:20:12;15.90;99.90
9329;DHT22;4703;48.748;19.142;2023-05-23T06:22:39;15.50;99.90
9329;DHT22;4703;48.748;19.142;2023-05-23T06:25:07;17.10;99.90
9329;DHT22;4703;48.748;19.142;2023-05-23T06:27:35;15.60;99.90
9329;DHT22;4703;48.748;19.142;2023-05-23T06:30:04;17.90;99.90
9329;DHT22;4703;48.748;19.142;2023-05-23T06:32:32;15.70;99.90
9329;DHT22;4703;48.748;19.142;2023-05-23T06:34:59;15.80;99.90
9329;DHT22;4703;48.748;19.142;2023-05-23T06:37:26;15.90;99.90
9329;DHT22;4703;48.748;19.142;2023-05-23T06:39:53;16.00;99.90
9329;DHT22;4703;48.748;19.142;2023-05-23T06:42:20;15.90;99.90
9329;DHT22;4703;48.748;19.142;2023-05-23T06:44:47;16.60;99.90
9329;DHT22;4703;48.748;19.142;2023-05-23T06:47:14;16.00;99.90
9329;DHT22;4703;48.748;19.142;2023-05-23T06:49:41;16.20;99.90
9329;DHT22;4703;48.748;19.142;2023-05-23T06:52:08;16.10;99.90
9329;DHT22;4703;48.748;19.142;2023-05-23T06:54:36;16.20;99.90
9329;DHT22;4703;48.748;19.142;2023-05-23T06:57:03;16.30;99.90
9329;DHT22;4703;48.748;19.142;2023-05-23T06:59:30;16.30;99.90
9329;DHT22;4703;48.748;19.142;2023-05-23T07:01:57;16.40;99.90
9329;DHT22;4703;48.748;19.142;2023-05-23T07:04:24;17.30;99.90
9329;DHT22;4703;48.748;19.142;2023-05-23T07:06:52;16.50;99.90
9329;DHT22;4703;48.748;19.142;2023-05-23T07:09:19;16.50;99.90
9329;DHT22;4703;48.748;19.142;2023-05-23T07:11:46;16.60;99.90
9329;DHT22;4703;48.748;19.142;2023-05-23T07:14:14;16.70;99.90
9329;DHT22;4703;48.748;19.142;2023-05-23T07:16:41;16.70;99.90
9329;DHT22;4703;48.748;19.142;2023-05-23T07:19:08;16.80;99.90
9329;DHT22;4703;48.748;19.142;2023-05-23T07:21:36;16.90;99.90
9329;DHT22;4703;48.748;19.142;2023-05-23T07:24:03;17.00;99.90
9329;DHT22;4703;48.748;19.142;2023-05-23T07:26:30;17.00;99.90
9329;DHT22;4703;48.748;19.142;2023-05-23T07:28:57;17.10;99.90
9329;DHT22;4703;48.748;19.142;2023-05-23T07:31:24;17.20;99.90
9329;DHT22;4703;48.748;19.142;2023-05-23T07:33:52;17.00;99.90
9329;DHT22;4703;48.748;19.142;2023-05-23T07:36:22;17.30;99.90
9329;DHT22;4703;48.748;19.142;2023-05-23T07:38:50;17.40;99.90
9329;DHT22;4703;48.748;19.142;2023-05-23T07:41:19;17.20;99.90
9329;DHT22;4703;48.748;19.142;2023-05-23T07:43:46;17.60;99.90
9329;DHT22;4703;48.748;19.142;2023-05-23T07:46:13;17.70;99.90
9329;DHT22;4703;48.748;19.142;2023-05-23T07:48:40;17.90;99.90
9329;DHT22;4703;48.748;19.142;2023-05-23T07:51:08;17.90;99.90
9329;DHT22;4703;48.748;19.142;2023-05-23T07:53:34;18.00;99.90
9329;DHT22;4703;48.748;19.142;2023-05-23T07:56:06;18.00;99.90
9329;DHT22;4703;48.748;19.142;2023-05-23T07:58:33;18.20;99.90
9329;DHT22;4703;48.748;19.142;2023-05-23T08:01:00;18.30;99.90
9329;DHT22;4703;48.748;19.142;2023-05-23T08:03:29;18.40;99.90
9329;DHT22;4703;48.748;19.142;2023-05-23T08:05:58;18.60;99.90
9329;DHT22;4703;48.748;19.142;2023-05-23T08:08:25;18.60;99.90
9329;DHT22;4703;48.748;19.142;2023-05-23T08:10:52;18.70;99.90
9329;DHT22;4703;48.748;19.142;2023-05-23T08:13:19;18.70;99.90
9329;DHT22;4703;48.748;19.142;2023-05-23T08:15:47;18.80;99.90
9329;DHT22;4703;48.748;19.142;2023-05-23T08:18:14;18.80;99.90
9329;DHT22;4703;48.748;19.142;2023-05-23T08:20:42;18.90;99.90
9329;DHT22;4703;48.748;19.142;2023-05-23T08:23:09;19.10;99.90
9329;DHT22;4703;48.748;19.142;2023-05-23T08:25:38;19.20;99.90
9329;DHT22;4703;48.748;19.142;2023-05-23T08:28:05;19.30;99.90
9329;DHT22;4703;48.748;19.142;2023-05-23T08:30:32;19.50;99.90
9329;DHT22;4703;48.748;19.142;2023-05-23T08:33:00;19.60;99.90
9329;DHT22;4703;48.748;19.142;2023-05-23T08:35:30;19.60;99.90
9329;DHT22;4703;48.748;19.142;2023-05-23T08:38:05;19.80;99.90
9329;DHT22;4703;48.748;19.142;2023-05-23T08:40:35;19.90;99.90
9329;DHT22;4703;48.748;19.142;2023-05-23T08:43:02;20.00;99.60
9329;DHT22;4703;48.748;19.142;2023-05-23T08:45:30;20.10;99.40
9329;DHT22;4703;48.748;19.142;2023-05-23T08:47:59;20.10;99.70
9329;DHT22;4703;48.748;19.142;2023-05-23T08:50:29;20.20;99.50
9329;DHT22;4703;48.748;19.142;2023-05-23T08:52:57;20.20;99.50
9329;DHT22;4703;48.748;19.142;2023-05-23T08:55:27;20.30;99.60
9329;DHT22;4703;48.748;19.142;2023-05-23T08:57:56;20.40;99.60
9329;DHT22;4703;48.748;19.142;2023-05-23T09:00:27;20.50;99.80
9329;DHT22;4703;48.748;19.142;2023-05-23T09:02:55;20.50;99.40
9329;DHT22;4703;48.748;19.142;2023-05-23T09:05:23;20.60;99.50
9329;DHT22;4703;48.748;19.142;2023-05-23T09:07:52;20.70;99.40
9329;DHT22;4703;48.748;19.142;2023-05-23T09:10:20;20.70;99.30
9329;DHT22;4703;48.748;19.142;2023-05-23T09:12:48;20.80;99.00
9329;DHT22;4703;48.748;19.142;2023-05-23T09:15:15;21.00;98.70
9329;DHT22;4703;48.748;19.142;2023-05-23T09:17:43;21.00;99.10
9329;DHT22;4703;48.748;19.142;2023-05-23T09:20:13;21.10;97.90
9329;DHT22;4703;48.748;19.142;2023-05-23T09:22:46;21.00;97.70
9329;DHT22;4703;48.748;19.142;2023-05-23T09:25:14;21.00;98.00
9329;DHT22;4703;48.748;19.142;2023-05-23T09:27:41;20.90;98.80
9329;DHT22;4703;48.748;19.142;2023-05-23T09:30:13;21.00;98.90
9329;DHT22;4703;48.748;19.142;2023-05-23T09:32:41;21.10;98.70
9329;DHT22;4703;48.748;19.142;2023-05-23T09:35:10;21.10;99.30
9329;DHT22;4703;48.748;19.142;2023-05-23T09:37:44;21.20;99.60
9329;DHT22;4703;48.748;19.142;2023-05-23T09:40:13;21.30;99.50
9329;DHT22;4703;48.748;19.142;2023-05-23T09:42:43;21.40;99.30
9329;DHT22;4703;48.748;19.142;2023-05-23T09:45:11;21.70;99.90
9329;DHT22;4703;48.748;19.142;2023-05-23T09:47:49;21.80;99.80
9329;DHT22;4703;48.748;19.142;2023-05-23T09:50:20;21.90;99.60
9329;DHT22;4703;48.748;19.142;2023-05-23T09:52:48;21.90;99.20
9329;DHT22;4703;48.748;19.142;2023-05-23T09:55:17;21.80;99.50
9329;DHT22;4703;48.748;19.142;2023-05-23T09:57:44;21.70;99.90
9329;DHT22;4703;48.748;19.142;2023-05-23T10:00:18;21.70;99.90
9329;DHT22;4703;48.748;19.142;2023-05-23T10:03:08;21.70;99.90
9329;DHT22;4703;48.748;19.142;2023-05-23T10:05:51;21.80;99.80
9329;DHT22;4703;48.748;19.142;2023-05-23T10:13:43;21.80;99.90
9329;DHT22;4703;48.748;19.142;2023-05-23T10:16:18;21.80;99.90
9329;DHT22;4703;48.748;19.142;2023-05-23T10:18:51;21.80;99.90
9329;DHT22;4703;48.748;19.142;2023-05-23T10:21:39;21.90;99.90
9329;DHT22;4703;48.748;19.142;2023-05-23T10:24:13;21.90;99.90
9329;DHT22;4703;48.748;19.142;2023-05-23T10:26:40;22.10;99.90
9329;DHT22;4703;48.748;19.142;2023-05-23T10:29:09;22.20;99.90
9329;DHT22;4703;48.748;19.142;2023-05-23T10:31:37;22.40;99.90
9329;DHT22;4703;48.748;19.142;2023-05-23T10:34:10;22.70;99.90
9329;DHT22;4703;48.748;19.142;2023-05-23T10:37:05;22.90;99.90
9329;DHT22;4703;48.748;19.142;2023-05-23T10:39:39;23.10;99.80
9329;DHT22;4703;48.748;19.142;2023-05-23T10:42:55;23.20;99.20
9329;DHT22;4703;48.748;19.142;2023-05-23T10:45:27;23.20;99.10
9329;DHT22;4703;48.748;19.142;2023-05-23T10:47:55;23.30;99.20
9329;DHT22;4703;48.748;19.142;2023-05-23T10:50:33;23.50;99.10
9329;DHT22;4703;48.748;19.142;2023-05-23T10:53:04;23.60;99.30
9329;DHT22;4703;48.748;19.142;2023-05-23T10:55:33;23.80;98.70
9329;DHT22;4703;48.748;19.142;2023-05-23T10:58:19;24.00;98.60
9329;DHT22;4703;48.748;19.142;2023-05-23T11:03:48;24.40;97.10
9329;DHT22;4703;48.748;19.142;2023-05-23T11:06:40;24.30;96.20
9329;DHT22;4703;48.748;19.142;2023-05-23T11:09:14;24.20;92.70
9329;DHT22;4703;48.748;19.142;2023-05-23T11:14:52;23.80;91.40
9329;DHT22;4703;48.748;19.142;2023-05-23T11:17:33;23.80;91.90
9329;DHT22;4703;48.748;19.142;2023-05-23T11:20:04;23.70;93.00
9329;DHT22;4703;48.748;19.142;2023-05-23T11:22:33;23.80;93.30
9329;DHT22;4703;48.748;19.142;2023-05-23T11:25:05;23.90;92.00
9329;DHT22;4703;48.748;19.142;2023-05-23T11:27:36;23.80;91.50
9329;DHT22;4703;48.748;19.142;2023-05-23T11:30:14;23.90;92.20
9329;DHT22;4703;48.748;19.142;2023-05-23T11:32:50;23.90;90.40
9329;DHT22;4703;48.748;19.142;2023-05-23T11:35:19;23.90;90.00
9329;DHT22;4703;48.748;19.142;2023-05-23T11:37:47;24.10;90.20
9329;DHT22;4703;48.748;19.142;2023-05-23T11:40:26;24.20;88.80
9329;DHT22;4703;48.748;19.142;2023-05-23T11:42:59;24.30;85.70
9329;DHT22;4703;48.748;19.142;2023-05-23T11:45:28;24.50;86.50
9329;DHT22;4703;48.748;19.142;2023-05-23T11:47:55;24.90;88.30
9329;DHT22;4703;48.748;19.142;2023-05-23T11:50:22;25.60;86.20
9329;DHT22;4703;48.748;19.142;2023-05-23T11:52:54;26.20;81.30
9329;DHT22;4703;48.748;19.142;2023-05-23T11:55:22;26.70;79.30
9329;DHT22;4703;48.748;19.142;2023-05-23T11:57:49;27.30;75.70
9329;DHT22;4703;48.748;19.142;2023-05-23T12:00:18;27.80;73.40
9329;DHT22;4703;48.748;19.142;2023-05-23T12:02:46;28.10;72.30
9329;DHT22;4703;48.748;19.142;2023-05-23T12:05:15;28.50;69.50
9329;DHT22;4703;48.748;19.142;2023-05-23T12:07:47;28.90;69.80
9329;DHT22;4703;48.748;19.142;2023-05-23T12:10:15;29.30;67.20
9329;DHT22;4703;48.748;19.142;2023-05-23T12:12:44;29.60;66.10
9329;DHT22;4703;48.748;19.142;2023-05-23T12:15:12;29.50;64.10
9329;DHT22;4703;48.748;19.142;2023-05-23T12:17:45;29.50;68.40
9329;DHT22;4703;48.748;19.142;2023-05-23T12:20:13;29.90;63.70
9329;DHT22;4703;48.748;19.142;2023-05-23T12:22:41;30.20;64.50
9329;DHT22;4703;48.748;19.142;2023-05-23T12:25:09;30.30;66.20
9329;DHT22;4703;48.748;19.142;2023-05-23T12:27:40;30.50;63.10
9329;DHT22;4703;48.748;19.142;2023-05-23T12:30:13;30.20;62.70
9329;DHT22;4703;48.748;19.142;2023-05-23T12:32:45;30.00;63.80
9329;DHT22;4703;48.748;19.142;2023-05-23T12:35:13;29.90;65.40
9329;DHT22;4703;48.748;19.142;2023-05-23T12:37:44;29.80;65.50
9329;DHT22;4703;48.748;19.142;2023-05-23T12:40:16;29.60;65.10
9329;DHT22;4703;48.748;19.142;2023-05-23T12:42:49;29.40;64.90
9329;DHT22;4703;48.748;19.142;2023-05-23T12:45:31;29.20;65.00
9329;DHT22;4703;48.748;19.142;2023-05-23T12:48:00;28.90;65.00
9329;DHT22;4703;48.748;19.142;2023-05-23T12:50:31;28.60;66.70
9329;DHT22;4703;48.748;19.142;2023-05-23T12:52:59;28.30;66.20
9329;DHT22;4703;48.748;19.142;2023-05-23T12:55:26;28.10;65.90
9329;DHT22;4703;48.748;19.142;2023-05-23T12:57:53;27.90;67.30
9329;DHT22;4703;48.748;19.142;2023-05-23T13:00:20;27.70;67.00
9329;DHT22;4703;48.748;19.142;2023-05-23T13:02:48;27.40;67.20
9329;DHT22;4703;48.748;19.142;2023-05-23T13:05:16;27.30;68.60
9329;DHT22;4703;48.748;19.142;2023-05-23T13:07:43;27.20;69.20
9329;DHT22;4703;48.748;19.142;2023-05-23T13:10:10;27.10;68.30
9329;DHT22;4703;48.748;19.142;2023-05-23T13:12:37;26.90;67.80
9329;DHT22;4703;48.748;19.142;2023-05-23T13:15:05;26.70;68.40
9329;DHT22;4703;48.748;19.142;2023-05-23T13:17:32;26.60;69.30
9329;DHT22;4703;48.748;19.142;2023-05-23T13:19:59;26.40;70.90
9329;DHT22;4703;48.748;19.142;2023-05-23T13:22:27;26.30;71.30
9329;DHT22;4703;48.748;19.142;2023-05-23T13:24:55;26.20;71.50
9329;DHT22;4703;48.748;19.142;2023-05-23T13:27:22;26.20;72.40
9329;DHT22;4703;48.748;19.142;2023-05-23T13:29:48;26.30;72.40
9329;DHT22;4703;48.748;19.142;2023-05-23T13:32:16;26.40;70.50
9329;DHT22;4703;48.748;19.142;2023-05-23T13:34:43;26.50;72.10
9329;DHT22;4703;48.748;19.142;2023-05-23T13:37:10;26.70;69.40
9329;DHT22;4703;48.748;19.142;2023-05-23T13:39:37;26.80;69.30
9329;DHT22;4703;48.748;19.142;2023-05-23T13:42:04;27.10;69.70
9329;DHT22;4703;48.748;19.142;2023-05-23T13:44:31;27.40;68.70
9329;DHT22;4703;48.748;19.142;2023-05-23T13:47:09;27.60;67.10
9329;DHT22;4703;48.748;19.142;2023-05-23T13:49:39;27.90;69.30
9329;DHT22;4703;48.748;19.142;2023-05-23T13:52:07;27.90;70.50
9329;DHT22;4703;48.748;19.142;2023-05-23T13:54:34;27.90;71.80
9329;DHT22;4703;48.748;19.142;2023-05-23T13:57:01;27.60;74.00
9329;DHT22;4703;48.748;19.142;2023-05-23T13:59:29;27.50;74.10
9329;DHT22;4703;48.748;19.142;2023-05-23T14:01:56;27.30;74.10
9329;DHT22;4703;48.748;19.142;2023-05-23T14:04:23;26.90;74.70
9329;DHT22;4703;48.748;19.142;2023-05-23T14:06:50;26.60;76.40
9329;DHT22;4703;48.748;19.142;2023-05-23T14:09:17;26.50;77.60
9329;DHT22;4703;48.748;19.142;2023-05-23T14:11:47;26.20;77.80
9329;DHT22;4703;48.748;19.142;2023-05-23T14:14:18;25.90;79.10
9329;DHT22;4703;48.748;19.142;2023-05-23T14:16:45;25.70;80.40
9329;DHT22;4703;48.748;19.142;2023-05-23T14:19:12;25.50;80.30
9329;DHT22;4703;48.748;19.142;2023-05-23T14:21:39;25.20;82.10
9329;DHT22;4703;48.748;19.142;2023-05-23T14:24:10;24.90;82.60
9329;DHT22;4703;48.748;19.142;2023-05-23T14:26:37;24.70;84.00
9329;DHT22;4703;48.748;19.142;2023-05-23T14:29:04;24.70;83.80
9329;DHT22;4703;48.748;19.142;2023-05-23T14:31:31;24.70;85.20
9329;DHT22;4703;48.748;19.142;2023-05-23T14:33:58;24.70;84.00
9329;DHT22;4703;48.748;19.142;2023-05-23T14:36:27;24.60;84.30
9329;DHT22;4703;48.748;19.142;2023-05-23T14:38:54;24.50;85.00
9329;DHT22;4703;48.748;19.142;2023-05-23T14:41:21;24.40;86.30
9329;DHT22;4703;48.748;19.142;2023-05-23T14:43:48;24.20;85.40
9329;DHT22;4703;48.748;19.142;2023-05-23T14:46:16;24.00;85.30
9329;DHT22;4703;48.748;19.142;2023-05-23T14:48:44;23.70;85.40
9329;DHT22;4703;48.748;19.142;2023-05-23T14:51:11;23.50;86.40
9329;DHT22;4703;48.748;19.142;2023-05-23T14:53:52;23.30;87.60
9329;DHT22;4703;48.748;19.142;2023-05-23T14:56:19;23.10;89.00
9329;DHT22;4703;48.748;19.142;2023-05-23T14:58:48;22.90;89.80
9329;DHT22;4703;48.748;19.142;2023-05-23T15:01:15;22.70;90.80
9329;DHT22;4703;48.748;19.142;2023-05-23T15:03:43;22.60;91.50
9329;DHT22;4703;48.748;19.142;2023-05-23T15:06:10;22.40;91.50
9329;DHT22;4703;48.748;19.142;2023-05-23T15:08:37;22.30;91.70
9329;DHT22;4703;48.748;19.142;2023-05-23T15:11:04;22.10;92.50
9329;DHT22;4703;48.748;19.142;2023-05-23T15:13:31;22.00;92.80
9329;DHT22;4703;48.748;19.142;2023-05-23T15:15:58;21.90;93.70
9329;DHT22;4703;48.748;19.142;2023-05-23T15:18:26;21.80;94.50
9329;DHT22;4703;48.748;19.142;2023-05-23T15:21:06;21.70;95.10
9329;DHT22;4703;48.748;19.142;2023-05-23T15:23:33;21.70;96.10
9329;DHT22;4703;48.748;19.142;2023-05-23T15:26:00;21.60;96.70
9329;DHT22;4703;48.748;19.142;2023-05-23T15:28:27;21.50;96.60
9329;DHT22;4703;48.748;19.142;2023-05-23T15:30:54;21.50;96.60
9329;DHT22;4703;48.748;19.142;2023-05-23T15:33:22;21.30;97.00
9329;DHT22;4703;48.748;19.142;2023-05-23T15:35:49;21.10;97.80
9329;DHT22;4703;48.748;19.142;2023-05-23T15:38:17;21.00;98.80
9329;DHT22;4703;48.748;19.142;2023-05-23T15:40:47;20.80;99.80
9329;DHT22;4703;48.748;19.142;2023-05-23T15:43:14;20.70;99.90
9329;DHT22;4703;48.748;19.142;2023-05-23T15:45:41;20.50;99.90
9329;DHT22;4703;48.748;19.142;2023-05-23T15:48:08;20.50;99.90
9329;DHT22;4703;48.748;19.142;2023-05-23T15:50:37;20.40;99.90
9329;DHT22;4703;48.748;19.142;2023-05-23T15:53:05;20.30;99.90
9329;DHT22;4703;48.748;19.142;2023-05-23T15:55:32;20.10;99.90
9329;DHT22;4703;48.748;19.142;2023-05-23T15:57:59;20.00;99.90
9329;DHT22;4703;48.748;19.142;2023-05-23T16:00:26;19.80;99.90
9329;DHT22;4703;48.748;19.142;2023-05-23T16:02:53;19.70;99.90
9329;DHT22;4703;48.748;19.142;2023-05-23T16:05:20;19.60;99.90
9329;DHT22;4703;48.748;19.142;2023-05-23T16:07:47;19.50;99.90
9329;DHT22;4703;48.748;19.142;2023-05-23T16:10:14;19.40;99.90
9329;DHT22;4703;48.748;19.142;2023-05-23T16:12:41;19.30;99.90
9329;DHT22;4703;48.748;19.142;2023-05-23T16:15:09;19.30;99.90
9329;DHT22;4703;48.748;19.142;2023-05-23T16:17:36;19.30;99.90
9329;DHT22;4703;48.748;19.142;2023-05-23T16:20:03;19.20;99.90